createdAt,value
2023-03-10T00:01:59.719Z,6.80
2023-03-10T00:05:22.796Z,6.60
2023-03-10T00:08:46.665Z,6.47
2023-03-10T00:12:10.346Z,7.17
2023-03-10T00:15:32.832Z,7.43
2023-03-10T00:18:55.699Z,7.05
2023-03-10T00:22:20.584Z,7.72
2023-03-10T00:25:44.631Z,6.45
2023-03-10T00:29:07.035Z,5.93
2023-03-10T00:32:30.198Z,6.20
2023-03-10T00:36:05.350Z,6.20
2023-03-10T00:39:28.670Z,6.35
2023-03-10T00:42:52.518Z,5.87
2023-03-10T00:46:15.101Z,6.00
2023-03-10T00:49:37.570Z,6.05
2023-03-10T00:53:00.698Z,6.72
2023-03-10T00:56:23.746Z,6.93
2023-03-10T00:59:50.698Z,6.50
2023-03-10T01:03:13.277Z,6.80
2023-03-10T01:06:36.745Z,6.22
2023-03-10T01:10:01.991Z,6.30
2023-03-10T01:13:24.702Z,5.40
2023-03-10T01:16:48.588Z,6.97
2023-03-10T01:20:15.266Z,5.87
2023-03-10T01:23:37.852Z,6.10
2023-03-10T01:27:01.006Z,5.85
2023-03-10T01:30:23.703Z,5.47
2023-03-10T01:33:48.153Z,6.12
2023-03-10T01:37:10.636Z,5.80
2023-03-10T01:40:33.243Z,5.07
2023-03-10T01:43:56.113Z,6.65
2023-03-10T01:47:19.272Z,5.72
2023-03-10T01:50:43.370Z,6.03
2023-03-10T01:54:09.687Z,6.32
2023-03-10T01:57:33.668Z,5.45
2023-03-10T02:00:56.518Z,6.00
2023-03-10T02:04:23.388Z,5.87
2023-03-10T02:07:47.380Z,5.93
2023-03-10T02:11:10.180Z,6.10
2023-03-10T02:14:33.086Z,6.95
2023-03-10T02:17:55.509Z,7.72
2023-03-10T02:21:22.149Z,8.18
2023-03-10T02:24:48.388Z,9.33
2023-03-10T02:28:12.582Z,9.35
2023-03-10T02:31:35.310Z,8.80
2023-03-10T02:34:58.526Z,9.25
2023-03-10T02:38:21.669Z,8.38
2023-03-10T02:41:45.578Z,8.40
2023-03-10T02:45:11.200Z,6.80
2023-03-10T02:48:35.372Z,6.40
2023-03-10T02:51:58.755Z,6.65
2023-03-10T02:55:22.726Z,5.90
2023-03-10T02:58:45.805Z,6.27
2023-03-10T03:02:10.173Z,5.47
2023-03-10T03:05:32.668Z,5.22
2023-03-10T03:08:55.760Z,5.40
2023-03-10T03:12:18.829Z,5.18
2023-03-10T03:15:42.670Z,6.03
2023-03-10T03:19:06.640Z,5.57
2023-03-10T03:22:29.657Z,5.18
2023-03-10T03:25:52.100Z,5.03
2023-03-10T03:29:15.658Z,5.12
2023-03-10T03:32:38.373Z,5.00
2023-03-10T03:36:02.851Z,4.95
2023-03-10T03:39:25.642Z,4.75
2023-03-10T03:42:50.316Z,4.72
2023-03-10T03:46:12.998Z,4.85
2023-03-10T03:49:36.549Z,4.87
2023-03-10T03:53:00.716Z,4.85
2023-03-10T03:56:23.682Z,5.25
2023-03-10T03:59:46.142Z,4.87
2023-03-10T04:03:09.580Z,5.53
2023-03-10T04:06:32.284Z,5.23
2023-03-10T04:09:55.983Z,4.57
2023-03-10T04:13:19.016Z,4.35
2023-03-10T04:16:41.959Z,4.65
2023-03-10T04:20:08.740Z,4.15
2023-03-10T04:23:32.158Z,4.30
2023-03-10T04:26:56.530Z,4.57
2023-03-10T04:30:24.107Z,3.90
2023-03-10T04:33:47.147Z,4.55
2023-03-10T04:37:09.755Z,4.35
2023-03-10T04:40:33.408Z,4.27
2023-03-10T04:43:57.869Z,4.87
2023-03-10T04:47:20.974Z,4.53
2023-03-10T04:50:43.523Z,4.45
2023-03-10T04:54:08.188Z,5.77
2023-03-10T04:57:30.721Z,5.50
2023-03-10T05:01:03.113Z,5.97
2023-03-10T05:04:26.834Z,8.02
2023-03-10T05:07:50.339Z,6.57
2023-03-10T05:11:14.514Z,5.67
2023-03-10T05:14:38.120Z,5.40
2023-03-10T05:18:02.647Z,5.65
2023-03-10T05:21:25.716Z,6.47
2023-03-10T05:24:49.990Z,5.72
2023-03-10T05:28:13.392Z,5.40
2023-03-10T05:31:36.207Z,6.03
2023-03-10T05:35:01.256Z,7.03
2023-03-10T05:38:24.201Z,5.50
2023-03-10T05:41:47.330Z,6.07
2023-03-10T05:45:12.316Z,6.03
2023-03-10T05:48:35.507Z,6.05
2023-03-10T05:52:00.029Z,5.85
2023-03-10T05:55:25.275Z,5.78
2023-03-10T05:58:48.055Z,5.75
2023-03-10T06:02:11.823Z,5.37
2023-03-10T06:05:34.731Z,5.68
2023-03-10T06:08:58.793Z,5.80
2023-03-10T06:12:22.034Z,6.25
2023-03-10T06:15:44.341Z,6.72
2023-03-10T06:19:07.208Z,6.90
2023-03-10T06:22:31.387Z,5.87
2023-03-10T06:25:59.162Z,7.32
2023-03-10T06:29:21.808Z,6.57
2023-03-10T06:32:44.417Z,8.10
2023-03-10T06:36:08.200Z,6.75
2023-03-10T06:39:31.890Z,6.87
2023-03-10T06:42:55.585Z,8.00
2023-03-10T06:46:18.820Z,7.43
2023-03-10T06:49:41.581Z,7.63
2023-03-10T06:53:04.432Z,7.62
2023-03-10T06:56:28.978Z,6.97
2023-03-10T06:59:53.586Z,8.02
2023-03-10T07:03:16.113Z,7.00
2023-03-10T07:06:39.181Z,6.80
2023-03-10T07:10:01.550Z,7.15
2023-03-10T07:13:24.233Z,6.40
2023-03-10T07:16:51.177Z,5.50
2023-03-10T07:20:14.449Z,4.15
2023-03-10T07:23:36.916Z,3.57
2023-03-10T07:27:00.902Z,3.62
2023-03-10T07:30:25.454Z,3.78
2023-03-10T07:33:50.487Z,3.30
2023-03-10T07:37:12.730Z,2.83
2023-03-10T07:40:35.712Z,3.63
2023-03-10T07:43:58.276Z,3.80
2023-03-10T07:47:21.292Z,6.30
2023-03-10T07:50:45.138Z,2.87
2023-03-10T07:54:14.551Z,2.90
2023-03-10T07:57:43.020Z,2.83
2023-03-10T08:01:07.414Z,2.17
2023-03-10T08:04:34.165Z,2.60
2023-03-10T08:07:59.656Z,2.45
2023-03-10T08:11:27.503Z,2.42
2023-03-10T08:14:52.228Z,2.30
2023-03-10T08:18:16.765Z,2.40
2023-03-10T08:21:55.993Z,2.75
2023-03-10T08:25:35.887Z,2.87
2023-03-10T08:28:59.837Z,2.90
2023-03-10T08:32:23.950Z,2.63
2023-03-10T08:35:47.548Z,2.75
2023-03-10T08:39:18.338Z,2.40
2023-03-10T08:42:52.925Z,2.72
2023-03-10T08:46:20.721Z,2.00
2023-03-10T08:49:48.682Z,2.73
2023-03-10T08:53:13.836Z,2.37
2023-03-10T09:01:20.651Z,2.72
2023-03-10T09:08:39.232Z,3.23
2023-03-10T09:12:10.082Z,3.47
2023-03-10T09:15:43.737Z,3.20
2023-03-10T09:19:12.408Z,2.90
2023-03-10T09:22:39.693Z,3.33
2023-03-10T09:26:04.221Z,2.87
2023-03-10T09:29:42.070Z,2.58
2023-03-10T09:33:08.007Z,2.67
2023-03-10T09:36:33.561Z,2.90
2023-03-10T09:39:58.201Z,1.48
2023-03-10T09:43:25.029Z,2.03
2023-03-10T09:46:51.690Z,1.12
2023-03-10T09:50:24.223Z,1.37
2023-03-10T09:54:03.929Z,1.52
2023-03-10T09:57:27.569Z,1.08
2023-03-10T10:00:51.325Z,1.77
2023-03-10T10:04:17.410Z,0.93
2023-03-10T10:07:54.505Z,1.80
2023-03-10T10:11:39.020Z,1.35
2023-03-10T10:15:08.007Z,1.10
2023-03-10T10:18:33.550Z,1.00
2023-03-10T10:22:00.268Z,1.17
2023-03-10T10:25:23.942Z,1.10
2023-03-10T10:28:51.034Z,1.37
2023-03-10T10:32:14.959Z,1.15
2023-03-10T10:35:39.564Z,1.10
2023-03-10T10:39:03.257Z,1.00
2023-03-10T10:42:27.959Z,0.82
2023-03-10T10:46:08.637Z,1.08
2023-03-10T10:49:34.501Z,0.82
2023-03-10T10:53:17.965Z,1.00
2023-03-10T10:56:43.790Z,1.23
2023-03-10T11:00:25.742Z,0.75
2023-03-10T11:03:51.358Z,1.30
2023-03-10T11:07:18.095Z,1.20
2023-03-10T11:10:41.673Z,1.00
2023-03-10T11:14:12.457Z,0.80
2023-03-10T11:17:40.355Z,1.30
2023-03-10T11:21:12.778Z,1.00
2023-03-10T11:24:39.555Z,1.23
2023-03-10T11:28:21.190Z,1.27
2023-03-10T11:31:50.877Z,1.42
2023-03-10T11:35:24.019Z,1.37
2023-03-10T11:38:53.250Z,1.20
2023-03-10T11:42:25.221Z,1.33
2023-03-10T11:46:02.467Z,1.50
2023-03-10T11:49:27.894Z,1.65
2023-03-10T11:52:52.132Z,1.58
2023-03-10T11:56:17.854Z,1.20
2023-03-10T11:59:48.084Z,1.00
2023-03-10T12:03:18.664Z,1.60
2023-03-10T12:06:45.742Z,1.50
2023-03-10T12:10:15.867Z,1.20
2023-03-10T12:13:44.051Z,1.50
2023-03-10T12:17:07.518Z,1.95
2023-03-10T12:20:31.628Z,1.20
2023-03-10T12:23:55.583Z,1.83
2023-03-10T12:27:19.481Z,1.35
2023-03-10T12:30:47.648Z,1.62
2023-03-10T12:34:15.534Z,2.42
2023-03-10T12:37:38.870Z,2.07
2023-03-10T12:41:02.973Z,1.58
2023-03-10T12:44:37.499Z,1.90
2023-03-10T12:48:03.848Z,1.50
2023-03-10T12:51:26.891Z,2.08
2023-03-10T12:54:54.066Z,1.77
2023-03-10T12:58:18.651Z,1.33
2023-03-10T13:01:55.147Z,1.67
2023-03-10T13:05:24.840Z,1.35
2023-03-10T13:08:49.029Z,1.20
2023-03-10T13:12:18.376Z,1.33
2023-03-10T13:15:44.818Z,0.90
2023-03-10T13:19:41.162Z,1.83
2023-03-10T13:23:28.189Z,1.52
2023-03-10T13:31:34.212Z,1.10
2023-03-10T13:34:58.100Z,1.23
2023-03-10T13:38:24.874Z,1.15
2023-03-10T13:41:49.582Z,1.45
2023-03-10T13:45:23.861Z,1.30
2023-03-10T13:49:15.140Z,1.37
2023-03-10T13:52:39.909Z,1.05
2023-03-10T13:56:18.494Z,5.00
2023-03-10T13:59:46.984Z,1.70
2023-03-10T14:03:17.649Z,4.87
2023-03-10T14:06:42.450Z,1.50
2023-03-10T14:10:21.444Z,0.88
2023-03-10T14:13:54.980Z,1.05
2023-03-10T14:17:39.505Z,1.40
2023-03-10T14:21:25.035Z,0.95
2023-03-10T14:24:48.978Z,1.00
2023-03-10T14:31:41.646Z,0.90
2023-03-10T14:35:11.051Z,0.77
2023-03-10T14:38:35.056Z,0.90
2023-03-10T14:46:58.194Z,1.35
2023-03-10T14:50:24.474Z,1.48
2023-03-10T14:53:50.835Z,1.92
2023-03-10T14:57:15.725Z,2.75
2023-03-10T15:00:39.701Z,5.23
2023-03-10T15:04:03.961Z,0.70
2023-03-10T15:07:28.755Z,0.98
2023-03-10T15:10:52.739Z,1.17
2023-03-10T15:14:18.154Z,1.02
2023-03-10T15:17:45.458Z,1.20
2023-03-10T15:21:10.891Z,1.00
2023-03-10T15:24:37.491Z,1.60
2023-03-10T15:28:02.009Z,1.10
2023-03-10T15:31:26.635Z,2.37
2023-03-10T15:34:51.299Z,1.93
2023-03-10T15:38:17.211Z,1.50
2023-03-10T15:41:43.230Z,1.67
2023-03-10T15:45:09.449Z,2.45
2023-03-10T15:48:34.863Z,2.17
2023-03-10T15:51:59.517Z,1.87
2023-03-10T15:55:24.111Z,1.25
2023-03-10T15:58:50.545Z,1.90
2023-03-10T16:02:16.494Z,1.80
2023-03-10T16:05:50.394Z,1.90
2023-03-10T16:09:17.720Z,1.87
2023-03-10T16:12:43.994Z,2.42
2023-03-10T16:16:11.367Z,1.98
2023-03-10T16:19:39.121Z,1.95
2023-03-10T16:23:04.199Z,2.65
2023-03-10T16:26:29.953Z,3.20
2023-03-10T16:29:53.720Z,1.50
2023-03-10T16:33:20.073Z,2.60
2023-03-10T16:36:44.568Z,2.00
2023-03-10T16:40:10.595Z,1.75
2023-03-10T16:43:37.948Z,2.60
2023-03-10T16:47:05.438Z,3.30
2023-03-10T16:50:34.177Z,1.75
2023-03-10T16:54:00.240Z,1.85
2023-03-10T16:57:30.572Z,1.45
2023-03-10T17:00:56.384Z,2.40
2023-03-10T17:04:28.463Z,5.20
2023-03-10T17:07:56.346Z,4.87
2023-03-10T17:11:26.677Z,1.85
2023-03-10T17:14:51.874Z,2.45
2023-03-10T17:18:27.128Z,1.30
2023-03-10T17:21:53.773Z,1.80
2023-03-10T17:25:22.573Z,2.45
2023-03-10T17:28:51.672Z,3.15
2023-03-10T17:32:18.038Z,4.60
2023-03-10T17:35:42.542Z,3.17
2023-03-10T17:39:08.481Z,7.30
2023-03-10T17:42:36.182Z,4.00
2023-03-10T17:46:03.932Z,2.83
2023-03-10T17:49:30.429Z,7.80
2023-03-10T17:52:58.227Z,3.40
2023-03-10T17:56:24.228Z,2.97
2023-03-10T17:59:52.079Z,3.95
2023-03-10T18:03:23.605Z,4.40
2023-03-10T18:06:49.716Z,3.92
2023-03-10T18:10:18.155Z,3.60
2023-03-10T18:18:06.723Z,2.70
2023-03-10T18:21:34.088Z,4.37
2023-03-10T18:25:03.424Z,3.05
2023-03-10T18:28:34.221Z,7.33
2023-03-10T18:32:04.115Z,8.43
2023-03-10T18:35:34.110Z,6.75
2023-03-10T18:39:08.275Z,3.47
2023-03-10T18:42:35.876Z,3.22
2023-03-10T18:46:05.172Z,2.50
2023-03-10T18:49:33.360Z,2.60
2023-03-10T18:53:03.175Z,4.37
2023-03-10T18:56:32.590Z,4.72
2023-03-10T19:00:15.664Z,3.10
2023-03-10T19:03:49.328Z,2.60
2023-03-10T19:07:15.647Z,3.12
2023-03-10T19:10:47.053Z,3.20
2023-03-10T19:14:15.026Z,6.00
2023-03-10T19:17:41.349Z,4.90
2023-03-10T19:21:06.554Z,4.20
2023-03-10T19:24:40.536Z,4.28
2023-03-10T19:28:09.764Z,6.22
2023-03-10T19:31:35.566Z,6.03
2023-03-10T19:35:03.279Z,6.30
2023-03-10T19:38:31.818Z,9.57
2023-03-10T19:42:02.503Z,9.50
2023-03-10T19:49:09.898Z,8.77
2023-03-10T19:52:40.117Z,8.15
2023-03-10T19:56:12.430Z,8.10
2023-03-10T19:59:43.809Z,9.10
2023-03-10T20:03:13.511Z,11.10
2023-03-10T20:06:45.706Z,9.10
2023-03-10T20:10:22.797Z,8.73
2023-03-10T20:13:52.552Z,8.93
2023-03-10T20:17:23.582Z,7.82
2023-03-10T20:20:51.606Z,6.78
2023-03-10T20:24:17.197Z,5.80
2023-03-10T20:27:50.278Z,7.50
2023-03-10T20:31:19.288Z,6.90
2023-03-10T20:34:44.865Z,9.30
2023-03-10T20:38:14.245Z,9.65
2023-03-10T20:41:45.919Z,9.05
2023-03-10T20:45:24.976Z,9.80
2023-03-10T20:48:51.765Z,18.50
2023-03-10T20:52:20.364Z,16.35
2023-03-10T20:55:47.845Z,16.62
2023-03-10T20:59:13.901Z,8.65
2023-03-10T21:02:39.712Z,17.92
2023-03-10T21:06:04.739Z,13.33
2023-03-10T21:09:34.971Z,8.77
2023-03-10T21:13:02.122Z,7.87
2023-03-10T21:16:26.118Z,7.97
2023-03-10T21:19:53.166Z,8.02
2023-03-10T21:23:18.208Z,7.90
2023-03-10T21:26:43.068Z,7.57
2023-03-10T21:30:11.294Z,6.70
2023-03-10T21:33:35.488Z,7.25
2023-03-10T21:37:00.293Z,6.45
2023-03-10T21:40:25.004Z,6.70
2023-03-10T21:43:50.769Z,6.12
2023-03-10T21:47:16.865Z,7.30
2023-03-10T21:50:41.088Z,6.55
2023-03-10T21:54:05.329Z,7.32
2023-03-10T21:57:29.261Z,6.75
2023-03-10T22:00:56.073Z,14.95
2023-03-10T22:04:22.138Z,9.18
2023-03-10T22:07:46.132Z,7.45
2023-03-10T22:11:11.300Z,7.10
2023-03-10T22:14:35.083Z,6.40
2023-03-10T22:18:03.118Z,6.37
2023-03-10T22:21:28.624Z,6.78
2023-03-10T22:24:54.115Z,8.97
2023-03-10T22:28:17.898Z,10.02
2023-03-10T22:31:41.643Z,9.90
2023-03-10T22:35:10.196Z,9.80
2023-03-10T22:38:36.191Z,10.95
2023-03-10T22:42:00.321Z,10.23
2023-03-10T22:45:25.589Z,10.00
2023-03-10T22:48:49.420Z,10.70
2023-03-10T22:52:13.680Z,10.85
2023-03-10T22:55:44.058Z,10.90
2023-03-10T22:59:08.983Z,9.43
2023-03-10T23:02:33.153Z,10.65
2023-03-10T23:06:14.492Z,9.55
2023-03-10T23:09:39.444Z,8.57
2023-03-10T23:13:09.365Z,7.77
2023-03-10T23:16:36.726Z,6.45
2023-03-10T23:20:02.247Z,8.43
2023-03-10T23:23:26.623Z,8.02
2023-03-10T23:26:50.861Z,7.25
2023-03-10T23:30:16.575Z,6.37
2023-03-10T23:33:41.385Z,6.70
2023-03-10T23:37:05.987Z,5.78
2023-03-10T23:40:30.804Z,3.40
2023-03-10T23:43:54.486Z,1.37
2023-03-10T23:47:20.276Z,0.50
2023-03-10T23:50:44.366Z,0.47
2023-03-10T23:54:08.951Z,0.35
2023-03-10T23:57:33.633Z,0.28
